<?xml version="1.0" encoding="UTF-8" standalone="no" ?>
<gpx xmlns="http://www.topografix.com/GPX/1/1" xmlns:xsi="http://www.w3.org/2001/XMLSchema-instance" xsi:schemaLocation="http://www.topografix.com/GPX/1/1 http://www.topografix.com/GPX/1/1/gpx.xsd" version="1.1" creator="VisuGPX - https://www.visugpx.com">
  <metadata>
    <name>Course à pied dans l'après-midi</name>
  </metadata>
  <trk>
    <name><![CDATA[Course à pied dans l'après-midi_1]]></name>
    <trkseg>
      <trkpt lat="48.72771" lon="7.04508">
        <ele>252.5</ele>
        <time>2023-10-18T14:10:30Z</time>
      </trkpt>
      <trkpt lat="48.72782" lon="7.04485">
        <ele>252.3</ele>
        <time>2023-10-18T14:10:41Z</time>
      </trkpt>
      <trkpt lat="48.72793" lon="7.04462">
        <ele>252.2</ele>
        <time>2023-10-18T14:10:51Z</time>
      </trkpt>
      <trkpt lat="48.728" lon="7.0445">
        <ele>252.1</ele>
        <time>2023-10-18T14:10:56Z</time>
      </trkpt>
      <trkpt lat="48.72802" lon="7.0442">
        <ele>251.6</ele>
        <time>2023-10-18T14:11:04Z</time>
      </trkpt>
      <trkpt lat="48.72801" lon="7.04391">
        <ele>251</ele>
        <time>2023-10-18T14:11:12Z</time>
      </trkpt>
      <trkpt lat="48.72796" lon="7.04363">
        <ele>250.5</ele>
        <time>2023-10-18T14:11:20Z</time>
      </trkpt>
      <trkpt lat="48.72803" lon="7.04336">
        <ele>250.4</ele>
        <time>2023-10-18T14:11:29Z</time>
      </trkpt>
      <trkpt lat="48.72818" lon="7.04316">
        <ele>250.4</ele>
        <time>2023-10-18T14:11:37Z</time>
      </trkpt>
      <trkpt lat="48.72833" lon="7.04297">
        <ele>250.3</ele>
        <time>2023-10-18T14:11:45Z</time>
      </trkpt>
      <trkpt lat="48.72844" lon="7.04283">
        <ele>250.3</ele>
        <time>2023-10-18T14:11:51Z</time>
      </trkpt>
      <trkpt lat="48.72848" lon="7.04285">
        <ele>250.3</ele>
        <time>2023-10-18T14:11:53Z</time>
      </trkpt>
      <trkpt lat="48.72861" lon="7.04306">
        <ele>250.1</ele>
        <time>2023-10-18T14:12:01Z</time>
      </trkpt>
      <trkpt lat="48.72873" lon="7.04328">
        <ele>250</ele>
        <time>2023-10-18T14:12:09Z</time>
      </trkpt>
      <trkpt lat="48.72886" lon="7.0435">
        <ele>250.1</ele>
        <time>2023-10-18T14:12:18Z</time>
      </trkpt>
      <trkpt lat="48.72898" lon="7.04373">
        <ele>250.4</ele>
        <time>2023-10-18T14:12:27Z</time>
      </trkpt>
      <trkpt lat="48.72912" lon="7.04394">
        <ele>251</ele>
        <time>2023-10-18T14:12:35Z</time>
      </trkpt>
      <trkpt lat="48.72924" lon="7.04414">
        <ele>251.6</ele>
        <time>2023-10-18T14:12:42Z</time>
      </trkpt>
      <trkpt lat="48.72912" lon="7.04437">
        <ele>251.8</ele>
        <time>2023-10-18T14:12:50Z</time>
      </trkpt>
      <trkpt lat="48.72898" lon="7.0446">
        <ele>252</ele>
        <time>2023-10-18T14:12:58Z</time>
      </trkpt>
      <trkpt lat="48.72889" lon="7.04483">
        <ele>252.3</ele>
        <time>2023-10-18T14:13:05Z</time>
      </trkpt>
      <trkpt lat="48.7288" lon="7.04509">
        <ele>252.9</ele>
        <time>2023-10-18T14:13:13Z</time>
      </trkpt>
      <trkpt lat="48.72877" lon="7.04512">
        <ele>253</ele>
        <time>2023-10-18T14:13:15Z</time>
      </trkpt>
      <trkpt lat="48.72863" lon="7.04494">
        <ele>252.8</ele>
        <time>2023-10-18T14:13:24Z</time>
      </trkpt>
      <trkpt lat="48.7285" lon="7.04472">
        <ele>252.6</ele>
        <time>2023-10-18T14:13:33Z</time>
      </trkpt>
      <trkpt lat="48.72835" lon="7.04456">
        <ele>252.6</ele>
        <time>2023-10-18T14:13:42Z</time>
      </trkpt>
      <trkpt lat="48.72817" lon="7.0445">
        <ele>252.7</ele>
        <time>2023-10-18T14:13:50Z</time>
      </trkpt>
      <trkpt lat="48.728" lon="7.04442">
        <ele>252.6</ele>
        <time>2023-10-18T14:13:59Z</time>
      </trkpt>
      <trkpt lat="48.72799" lon="7.04449">
        <ele>252.6</ele>
        <time>2023-10-18T14:14:02Z</time>
      </trkpt>
      <trkpt lat="48.72815" lon="7.04463">
        <ele>252.7</ele>
        <time>2023-10-18T14:14:11Z</time>
      </trkpt>
      <trkpt lat="48.72833" lon="7.0447">
        <ele>252.6</ele>
        <time>2023-10-18T14:14:20Z</time>
      </trkpt>
      <trkpt lat="48.72848" lon="7.04485">
        <ele>252.7</ele>
        <time>2023-10-18T14:14:28Z</time>
      </trkpt>
      <trkpt lat="48.72861" lon="7.04506">
        <ele>252.8</ele>
        <time>2023-10-18T14:14:36Z</time>
      </trkpt>
      <trkpt lat="48.72864" lon="7.04532">
        <ele>252.9</ele>
        <time>2023-10-18T14:14:45Z</time>
      </trkpt>
      <trkpt lat="48.72857" lon="7.04561">
        <ele>252.9</ele>
        <time>2023-10-18T14:14:54Z</time>
      </trkpt>
      <trkpt lat="48.72847" lon="7.04586">
        <ele>252.8</ele>
        <time>2023-10-18T14:15:03Z</time>
      </trkpt>
      <trkpt lat="48.72836" lon="7.04608">
        <ele>252.7</ele>
        <time>2023-10-18T14:15:09Z</time>
      </trkpt>
      <trkpt lat="48.72824" lon="7.04631">
        <ele>252.6</ele>
        <time>2023-10-18T14:15:18Z</time>
      </trkpt>
      <trkpt lat="48.72814" lon="7.04656">
        <ele>252.5</ele>
        <time>2023-10-18T14:15:28Z</time>
      </trkpt>
      <trkpt lat="48.72802" lon="7.04679">
        <ele>252.4</ele>
        <time>2023-10-18T14:15:37Z</time>
      </trkpt>
      <trkpt lat="48.72783" lon="7.04686">
        <ele>252.4</ele>
        <time>2023-10-18T14:15:45Z</time>
      </trkpt>
      <trkpt lat="48.72764" lon="7.04682">
        <ele>252.3</ele>
        <time>2023-10-18T14:15:52Z</time>
      </trkpt>
      <trkpt lat="48.72747" lon="7.0467">
        <ele>253.8</ele>
        <time>2023-10-18T14:15:59Z</time>
      </trkpt>
      <trkpt lat="48.72733" lon="7.04648">
        <ele>253.7</ele>
        <time>2023-10-18T14:16:07Z</time>
      </trkpt>
      <trkpt lat="48.72724" lon="7.04623">
        <ele>253.4</ele>
        <time>2023-10-18T14:16:15Z</time>
      </trkpt>
      <trkpt lat="48.72726" lon="7.04596">
        <ele>253.1</ele>
        <time>2023-10-18T14:16:22Z</time>
      </trkpt>
      <trkpt lat="48.72739" lon="7.04573">
        <ele>252.9</ele>
        <time>2023-10-18T14:16:30Z</time>
      </trkpt>
      <trkpt lat="48.72749" lon="7.04551">
        <ele>252.7</ele>
        <time>2023-10-18T14:16:38Z</time>
      </trkpt>
      <trkpt lat="48.72761" lon="7.04529">
        <ele>252.6</ele>
        <time>2023-10-18T14:16:47Z</time>
      </trkpt>
      <trkpt lat="48.72771" lon="7.04505">
        <ele>252.5</ele>
        <time>2023-10-18T14:16:55Z</time>
      </trkpt>
      <trkpt lat="48.72783" lon="7.04482">
        <ele>252.3</ele>
        <time>2023-10-18T14:17:04Z</time>
      </trkpt>
      <trkpt lat="48.72795" lon="7.04458">
        <ele>252.1</ele>
        <time>2023-10-18T14:17:13Z</time>
      </trkpt>
      <trkpt lat="48.72803" lon="7.0443">
        <ele>251.8</ele>
        <time>2023-10-18T14:17:22Z</time>
      </trkpt>
      <trkpt lat="48.72806" lon="7.04402">
        <ele>251.2</ele>
        <time>2023-10-18T14:17:29Z</time>
      </trkpt>
      <trkpt lat="48.72806" lon="7.04391">
        <ele>251</ele>
        <time>2023-10-18T14:17:32Z</time>
      </trkpt>
      <trkpt lat="48.72797" lon="7.04365">
        <ele>250.5</ele>
        <time>2023-10-18T14:17:39Z</time>
      </trkpt>
      <trkpt lat="48.72805" lon="7.04339">
        <ele>250.4</ele>
        <time>2023-10-18T14:17:47Z</time>
      </trkpt>
      <trkpt lat="48.72818" lon="7.04319">
        <ele>250.4</ele>
        <time>2023-10-18T14:17:55Z</time>
      </trkpt>
      <trkpt lat="48.72832" lon="7.043">
        <ele>250.3</ele>
        <time>2023-10-18T14:18:03Z</time>
      </trkpt>
      <trkpt lat="48.72846" lon="7.04287">
        <ele>250.3</ele>
        <time>2023-10-18T14:18:10Z</time>
      </trkpt>
      <trkpt lat="48.72859" lon="7.04308">
        <ele>250.2</ele>
        <time>2023-10-18T14:18:19Z</time>
      </trkpt>
      <trkpt lat="48.72871" lon="7.04329">
        <ele>250</ele>
        <time>2023-10-18T14:18:27Z</time>
      </trkpt>
      <trkpt lat="48.72883" lon="7.04352">
        <ele>250.1</ele>
        <time>2023-10-18T14:18:35Z</time>
      </trkpt>
      <trkpt lat="48.72897" lon="7.04373">
        <ele>250.5</ele>
        <time>2023-10-18T14:18:43Z</time>
      </trkpt>
      <trkpt lat="48.72912" lon="7.04392">
        <ele>251.1</ele>
        <time>2023-10-18T14:18:50Z</time>
      </trkpt>
      <trkpt lat="48.72925" lon="7.04414">
        <ele>251.7</ele>
        <time>2023-10-18T14:18:57Z</time>
      </trkpt>
      <trkpt lat="48.72913" lon="7.04436">
        <ele>251.8</ele>
        <time>2023-10-18T14:19:04Z</time>
      </trkpt>
      <trkpt lat="48.72898" lon="7.04457">
        <ele>252.1</ele>
        <time>2023-10-18T14:19:11Z</time>
      </trkpt>
      <trkpt lat="48.72887" lon="7.04481">
        <ele>252.4</ele>
        <time>2023-10-18T14:19:19Z</time>
      </trkpt>
      <trkpt lat="48.72878" lon="7.04504">
        <ele>252.9</ele>
        <time>2023-10-18T14:19:26Z</time>
      </trkpt>
      <trkpt lat="48.72876" lon="7.04505">
        <ele>253</ele>
        <time>2023-10-18T14:19:27Z</time>
      </trkpt>
      <trkpt lat="48.72859" lon="7.04489">
        <ele>252.7</ele>
        <time>2023-10-18T14:19:36Z</time>
      </trkpt>
      <trkpt lat="48.72844" lon="7.04471">
        <ele>252.6</ele>
        <time>2023-10-18T14:19:44Z</time>
      </trkpt>
      <trkpt lat="48.72828" lon="7.04458">
        <ele>252.7</ele>
        <time>2023-10-18T14:19:52Z</time>
      </trkpt>
      <trkpt lat="48.72811" lon="7.04449">
        <ele>252.6</ele>
        <time>2023-10-18T14:20:00Z</time>
      </trkpt>
      <trkpt lat="48.72797" lon="7.04445">
        <ele>252.6</ele>
        <time>2023-10-18T14:20:07Z</time>
      </trkpt>
      <trkpt lat="48.72809" lon="7.04462">
        <ele>252.7</ele>
        <time>2023-10-18T14:20:16Z</time>
      </trkpt>
      <trkpt lat="48.72828" lon="7.04467">
        <ele>252.6</ele>
        <time>2023-10-18T14:20:23Z</time>
      </trkpt>
      <trkpt lat="48.72844" lon="7.04483">
        <ele>252.6</ele>
        <time>2023-10-18T14:20:31Z</time>
      </trkpt>
      <trkpt lat="48.72857" lon="7.04505">
        <ele>252.8</ele>
        <time>2023-10-18T14:20:39Z</time>
      </trkpt>
      <trkpt lat="48.72862" lon="7.04534">
        <ele>252.9</ele>
        <time>2023-10-18T14:20:47Z</time>
      </trkpt>
      <trkpt lat="48.72856" lon="7.04561">
        <ele>252.9</ele>
        <time>2023-10-18T14:20:55Z</time>
      </trkpt>
      <trkpt lat="48.72846" lon="7.04586">
        <ele>252.8</ele>
        <time>2023-10-18T14:21:04Z</time>
      </trkpt>
      <trkpt lat="48.72834" lon="7.04611">
        <ele>252.7</ele>
        <time>2023-10-18T14:21:12Z</time>
      </trkpt>
      <trkpt lat="48.72824" lon="7.04637">
        <ele>252.6</ele>
        <time>2023-10-18T14:21:20Z</time>
      </trkpt>
      <trkpt lat="48.72812" lon="7.0466">
        <ele>252.5</ele>
        <time>2023-10-18T14:21:28Z</time>
      </trkpt>
      <trkpt lat="48.72798" lon="7.04675">
        <ele>252.4</ele>
        <time>2023-10-18T14:21:34Z</time>
      </trkpt>
      <trkpt lat="48.72778" lon="7.04679">
        <ele>252.4</ele>
        <time>2023-10-18T14:21:41Z</time>
      </trkpt>
      <trkpt lat="48.72759" lon="7.04675">
        <ele>252.3</ele>
        <time>2023-10-18T14:21:48Z</time>
      </trkpt>
      <trkpt lat="48.72743" lon="7.04662">
        <ele>252.2</ele>
        <time>2023-10-18T14:21:55Z</time>
      </trkpt>
      <trkpt lat="48.72731" lon="7.04642">
        <ele>252.2</ele>
        <time>2023-10-18T14:22:02Z</time>
      </trkpt>
      <trkpt lat="48.72719" lon="7.04618">
        <ele>252.2</ele>
        <time>2023-10-18T14:22:10Z</time>
      </trkpt>
      <trkpt lat="48.72728" lon="7.04591">
        <ele>252.2</ele>
        <time>2023-10-18T14:22:17Z</time>
      </trkpt>
      <trkpt lat="48.72741" lon="7.0457">
        <ele>252.2</ele>
        <time>2023-10-18T14:22:24Z</time>
      </trkpt>
      <trkpt lat="48.72753" lon="7.04546">
        <ele>252.2</ele>
        <time>2023-10-18T14:22:32Z</time>
      </trkpt>
      <trkpt lat="48.72765" lon="7.04522">
        <ele>252.3</ele>
        <time>2023-10-18T14:22:40Z</time>
      </trkpt>
      <trkpt lat="48.72777" lon="7.04498">
        <ele>252.4</ele>
        <time>2023-10-18T14:22:48Z</time>
      </trkpt>
      <trkpt lat="48.72789" lon="7.04474">
        <ele>252.5</ele>
        <time>2023-10-18T14:22:56Z</time>
      </trkpt>
      <trkpt lat="48.72801" lon="7.04452">
        <ele>252.6</ele>
        <time>2023-10-18T14:23:04Z</time>
      </trkpt>
      <trkpt lat="48.72804" lon="7.04451">
        <ele>252.6</ele>
        <time>2023-10-18T14:23:06Z</time>
      </trkpt>
      <trkpt lat="48.72823" lon="7.04463">
        <ele>252.7</ele>
        <time>2023-10-18T14:23:17Z</time>
      </trkpt>
      <trkpt lat="48.72841" lon="7.04478">
        <ele>252.6</ele>
        <time>2023-10-18T14:23:26Z</time>
      </trkpt>
      <trkpt lat="48.72854" lon="7.04498">
        <ele>252.7</ele>
        <time>2023-10-18T14:23:34Z</time>
      </trkpt>
      <trkpt lat="48.72863" lon="7.04524">
        <ele>252.8</ele>
        <time>2023-10-18T14:23:42Z</time>
      </trkpt>
      <trkpt lat="48.72858" lon="7.04554">
        <ele>252.9</ele>
        <time>2023-10-18T14:23:51Z</time>
      </trkpt>
      <trkpt lat="48.72849" lon="7.0458">
        <ele>252.8</ele>
        <time>2023-10-18T14:24:00Z</time>
      </trkpt>
      <trkpt lat="48.72839" lon="7.04602">
        <ele>252.7</ele>
        <time>2023-10-18T14:24:08Z</time>
      </trkpt>
      <trkpt lat="48.72828" lon="7.04626">
        <ele>252.6</ele>
        <time>2023-10-18T14:24:15Z</time>
      </trkpt>
      <trkpt lat="48.72817" lon="7.04647">
        <ele>252.5</ele>
        <time>2023-10-18T14:24:22Z</time>
      </trkpt>
      <trkpt lat="48.72805" lon="7.04671">
        <ele>252.4</ele>
        <time>2023-10-18T14:24:29Z</time>
      </trkpt>
      <trkpt lat="48.72788" lon="7.04681">
        <ele>252.4</ele>
        <time>2023-10-18T14:24:36Z</time>
      </trkpt>
      <trkpt lat="48.72769" lon="7.04681">
        <ele>252.3</ele>
        <time>2023-10-18T14:24:43Z</time>
      </trkpt>
      <trkpt lat="48.7275" lon="7.04675">
        <ele>252.2</ele>
        <time>2023-10-18T14:24:50Z</time>
      </trkpt>
      <trkpt lat="48.72736" lon="7.04653">
        <ele>252.2</ele>
        <time>2023-10-18T14:24:59Z</time>
      </trkpt>
      <trkpt lat="48.72725" lon="7.04628">
        <ele>252.2</ele>
        <time>2023-10-18T14:25:08Z</time>
      </trkpt>
      <trkpt lat="48.72725" lon="7.046">
        <ele>252.2</ele>
        <time>2023-10-18T14:25:16Z</time>
      </trkpt>
      <trkpt lat="48.72737" lon="7.04577">
        <ele>252.2</ele>
        <time>2023-10-18T14:25:23Z</time>
      </trkpt>
      <trkpt lat="48.72748" lon="7.04555">
        <ele>252.2</ele>
        <time>2023-10-18T14:25:30Z</time>
      </trkpt>
      <trkpt lat="48.72759" lon="7.04533">
        <ele>252.2</ele>
        <time>2023-10-18T14:25:39Z</time>
      </trkpt>
      <trkpt lat="48.72761" lon="7.04533">
        <ele>252.2</ele>
        <time>2023-10-18T14:25:40Z</time>
      </trkpt>
      <trkpt lat="48.72763" lon="7.04546">
        <ele>252.2</ele>
        <time>2023-10-18T14:25:44Z</time>
      </trkpt>
      <trkpt lat="48.72752" lon="7.04567">
        <ele>252.2</ele>
        <time>2023-10-18T14:27:23Z</time>
      </trkpt>
      <trkpt lat="48.72739" lon="7.04591">
        <ele>252.2</ele>
        <time>2023-10-18T14:27:31Z</time>
      </trkpt>
      <trkpt lat="48.72733" lon="7.04608">
        <ele>252.2</ele>
        <time>2023-10-18T14:27:38Z</time>
      </trkpt>
      <trkpt lat="48.72735" lon="7.04604">
        <ele>252.2</ele>
        <time>2023-10-18T14:27:41Z</time>
      </trkpt>
      <trkpt lat="48.72746" lon="7.04579">
        <ele>252.2</ele>
        <time>2023-10-18T14:27:52Z</time>
      </trkpt>
      <trkpt lat="48.72756" lon="7.04555">
        <ele>252.2</ele>
        <time>2023-10-18T14:28:04Z</time>
      </trkpt>
      <trkpt lat="48.72765" lon="7.04532">
        <ele>252.2</ele>
        <time>2023-10-18T14:28:17Z</time>
      </trkpt>
      <trkpt lat="48.72777" lon="7.04509">
        <ele>252.4</ele>
        <time>2023-10-18T14:28:37Z</time>
      </trkpt>
      <trkpt lat="48.72789" lon="7.04487">
        <ele>252.5</ele>
        <time>2023-10-18T14:28:50Z</time>
      </trkpt>
      <trkpt lat="48.72799" lon="7.04465">
        <ele>252.6</ele>
        <time>2023-10-18T14:29:01Z</time>
      </trkpt>
      <trkpt lat="48.72802" lon="7.0446">
        <ele>252.6</ele>
        <time>2023-10-18T14:29:06Z</time>
      </trkpt>
      <trkpt lat="48.72792" lon="7.04483">
        <ele>252.5</ele>
        <time>2023-10-18T14:29:16Z</time>
      </trkpt>
      <trkpt lat="48.72781" lon="7.04506">
        <ele>252.4</ele>
        <time>2023-10-18T14:29:26Z</time>
      </trkpt>
      <trkpt lat="48.72771" lon="7.0453">
        <ele>252.3</ele>
        <time>2023-10-18T14:29:44Z</time>
      </trkpt>
      <trkpt lat="48.72762" lon="7.04547">
        <ele>252.2</ele>
        <time>2023-10-18T14:29:57Z</time>
      </trkpt>
      <trkpt lat="48.72761" lon="7.04547">
        <ele>252.2</ele>
        <time>2023-10-18T14:30:01Z</time>
      </trkpt>
      <trkpt lat="48.72761" lon="7.04549">
        <ele>252.2</ele>
        <time>2023-10-18T14:30:06Z</time>
      </trkpt>
      <trkpt lat="48.72761" lon="7.04551">
        <ele>252.2</ele>
        <time>2023-10-18T14:30:08Z</time>
      </trkpt>
      <trkpt lat="48.72759" lon="7.04555">
        <ele>252.2</ele>
        <time>2023-10-18T14:30:12Z</time>
      </trkpt>
      <trkpt lat="48.7275" lon="7.04579">
        <ele>252.2</ele>
        <time>2023-10-18T14:30:28Z</time>
      </trkpt>
      <trkpt lat="48.72738" lon="7.04603">
        <ele>252.2</ele>
        <time>2023-10-18T14:30:37Z</time>
      </trkpt>
      <trkpt lat="48.72739" lon="7.04633">
        <ele>252.2</ele>
        <time>2023-10-18T14:30:43Z</time>
      </trkpt>
      <trkpt lat="48.72741" lon="7.04637">
        <ele>252.2</ele>
        <time>2023-10-18T14:30:45Z</time>
      </trkpt>
      <trkpt lat="48.72738" lon="7.04609">
        <ele>252.2</ele>
        <time>2023-10-18T14:30:53Z</time>
      </trkpt>
      <trkpt lat="48.72743" lon="7.04583">
        <ele>252.2</ele>
        <time>2023-10-18T14:31:04Z</time>
      </trkpt>
      <trkpt lat="48.72746" lon="7.04577">
        <ele>252.2</ele>
        <time>2023-10-18T14:31:10Z</time>
      </trkpt>
      <trkpt lat="48.72749" lon="7.04571">
        <ele>252.2</ele>
        <time>2023-10-18T14:31:16Z</time>
      </trkpt>
      <trkpt lat="48.72746" lon="7.04578">
        <ele>252.2</ele>
        <time>2023-10-18T14:31:33Z</time>
      </trkpt>
      <trkpt lat="48.72744" lon="7.04581">
        <ele>252.2</ele>
        <time>2023-10-18T14:31:40Z</time>
      </trkpt>
      <trkpt lat="48.72744" lon="7.0458">
        <ele>252.2</ele>
        <time>2023-10-18T14:31:48Z</time>
      </trkpt>
      <trkpt lat="48.72748" lon="7.04573">
        <ele>252.2</ele>
        <time>2023-10-18T14:31:51Z</time>
      </trkpt>
      <trkpt lat="48.7276" lon="7.04546">
        <ele>252.3</ele>
        <time>2023-10-18T14:31:57Z</time>
      </trkpt>
      <trkpt lat="48.72771" lon="7.04521">
        <ele>252.4</ele>
        <time>2023-10-18T14:32:01Z</time>
      </trkpt>
      <trkpt lat="48.72784" lon="7.04493">
        <ele>252.5</ele>
        <time>2023-10-18T14:32:05Z</time>
      </trkpt>
      <trkpt lat="48.72798" lon="7.04466">
        <ele>252.6</ele>
        <time>2023-10-18T14:32:09Z</time>
      </trkpt>
      <trkpt lat="48.72802" lon="7.04454">
        <ele>252.6</ele>
        <time>2023-10-18T14:32:12Z</time>
      </trkpt>
      <trkpt lat="48.72801" lon="7.04456">
        <ele>252.6</ele>
        <time>2023-10-18T14:32:15Z</time>
      </trkpt>
      <trkpt lat="48.72794" lon="7.04483">
        <ele>252.5</ele>
        <time>2023-10-18T14:32:30Z</time>
      </trkpt>
      <trkpt lat="48.72782" lon="7.04508">
        <ele>252.4</ele>
        <time>2023-10-18T14:32:43Z</time>
      </trkpt>
      <trkpt lat="48.7277" lon="7.04535">
        <ele>252.2</ele>
        <time>2023-10-18T14:32:48Z</time>
      </trkpt>
      <trkpt lat="48.72758" lon="7.04563">
        <ele>252.2</ele>
        <time>2023-10-18T14:32:52Z</time>
      </trkpt>
      <trkpt lat="48.72747" lon="7.04586">
        <ele>252.2</ele>
        <time>2023-10-18T14:32:55Z</time>
      </trkpt>
      <trkpt lat="48.72735" lon="7.04615">
        <ele>252.2</ele>
        <time>2023-10-18T14:32:59Z</time>
      </trkpt>
      <trkpt lat="48.72732" lon="7.04621">
        <ele>252.2</ele>
        <time>2023-10-18T14:33:00Z</time>
      </trkpt>
      <trkpt lat="48.72732" lon="7.04626">
        <ele>252.2</ele>
        <time>2023-10-18T14:33:02Z</time>
      </trkpt>
      <trkpt lat="48.72735" lon="7.04621">
        <ele>252.2</ele>
        <time>2023-10-18T14:33:04Z</time>
      </trkpt>
      <trkpt lat="48.72741" lon="7.04595">
        <ele>252.2</ele>
        <time>2023-10-18T14:33:13Z</time>
      </trkpt>
      <trkpt lat="48.72747" lon="7.04583">
        <ele>252.2</ele>
        <time>2023-10-18T14:33:20Z</time>
      </trkpt>
      <trkpt lat="48.72748" lon="7.04577">
        <ele>252.2</ele>
        <time>2023-10-18T14:33:23Z</time>
      </trkpt>
      <trkpt lat="48.7277" lon="7.04542">
        <ele>252.2</ele>
        <time>2023-10-18T14:35:16Z</time>
      </trkpt>
      <trkpt lat="48.72789" lon="7.04541">
        <ele>252.1</ele>
        <time>2023-10-18T14:35:22Z</time>
      </trkpt>
      <trkpt lat="48.72808" lon="7.0454">
        <ele>252</ele>
        <time>2023-10-18T14:35:27Z</time>
      </trkpt>
      <trkpt lat="48.72827" lon="7.04545">
        <ele>252.1</ele>
        <time>2023-10-18T14:35:32Z</time>
      </trkpt>
      <trkpt lat="48.72847" lon="7.04553">
        <ele>252.2</ele>
        <time>2023-10-18T14:35:37Z</time>
      </trkpt>
      <trkpt lat="48.72853" lon="7.04555">
        <ele>252.4</ele>
        <time>2023-10-18T14:35:39Z</time>
      </trkpt>
      <trkpt lat="48.72851" lon="7.04561">
        <ele>252.6</ele>
        <time>2023-10-18T14:38:33Z</time>
      </trkpt>
      <trkpt lat="48.72851" lon="7.04561">
        <ele>252.7</ele>
        <time>2023-10-18T14:38:35Z</time>
      </trkpt>
      <trkpt lat="48.72849" lon="7.0456">
        <ele>252.9</ele>
        <time>2023-10-18T14:39:16Z</time>
      </trkpt>
      <trkpt lat="48.72848" lon="7.04559">
        <ele>253</ele>
        <time>2023-10-18T14:39:19Z</time>
      </trkpt>
      <trkpt lat="48.72851" lon="7.0455">
        <ele>253</ele>
        <time>2023-10-18T14:39:22Z</time>
      </trkpt>
      <trkpt lat="48.72852" lon="7.04537">
        <ele>252.9</ele>
        <time>2023-10-18T14:39:24Z</time>
      </trkpt>
      <trkpt lat="48.72851" lon="7.04522">
        <ele>252.8</ele>
        <time>2023-10-18T14:39:26Z</time>
      </trkpt>
      <trkpt lat="48.72847" lon="7.04509">
        <ele>252.8</ele>
        <time>2023-10-18T14:39:28Z</time>
      </trkpt>
      <trkpt lat="48.72838" lon="7.04492">
        <ele>252.7</ele>
        <time>2023-10-18T14:39:31Z</time>
      </trkpt>
      <trkpt lat="48.72827" lon="7.04481">
        <ele>252.6</ele>
        <time>2023-10-18T14:39:34Z</time>
      </trkpt>
      <trkpt lat="48.72819" lon="7.04476">
        <ele>252.6</ele>
        <time>2023-10-18T14:39:36Z</time>
      </trkpt>
      <trkpt lat="48.7281" lon="7.04475">
        <ele>252.7</ele>
        <time>2023-10-18T14:39:38Z</time>
      </trkpt>
      <trkpt lat="48.72802" lon="7.04479">
        <ele>252.6</ele>
        <time>2023-10-18T14:39:40Z</time>
      </trkpt>
      <trkpt lat="48.72795" lon="7.04487">
        <ele>252.6</ele>
        <time>2023-10-18T14:39:42Z</time>
      </trkpt>
      <trkpt lat="48.72781" lon="7.0451">
        <ele>252.5</ele>
        <time>2023-10-18T14:39:46Z</time>
      </trkpt>
      <trkpt lat="48.72768" lon="7.04536">
        <ele>252.3</ele>
        <time>2023-10-18T14:39:50Z</time>
      </trkpt>
      <trkpt lat="48.72756" lon="7.04562">
        <ele>252.2</ele>
        <time>2023-10-18T14:39:54Z</time>
      </trkpt>
      <trkpt lat="48.72746" lon="7.04587">
        <ele>252.2</ele>
        <time>2023-10-18T14:39:58Z</time>
      </trkpt>
      <trkpt lat="48.72739" lon="7.04604">
        <ele>252.2</ele>
        <time>2023-10-18T14:40:01Z</time>
      </trkpt>
      <trkpt lat="48.72738" lon="7.04615">
        <ele>252.2</ele>
        <time>2023-10-18T14:40:03Z</time>
      </trkpt>
      <trkpt lat="48.72739" lon="7.04631">
        <ele>252.2</ele>
        <time>2023-10-18T14:40:06Z</time>
      </trkpt>
      <trkpt lat="48.72742" lon="7.04641">
        <ele>252.2</ele>
        <time>2023-10-18T14:40:08Z</time>
      </trkpt>
      <trkpt lat="48.72747" lon="7.04646">
        <ele>252.2</ele>
        <time>2023-10-18T14:40:10Z</time>
      </trkpt>
      <trkpt lat="48.72749" lon="7.04637">
        <ele>252.2</ele>
        <time>2023-10-18T14:40:14Z</time>
      </trkpt>
      <trkpt lat="48.72741" lon="7.04609">
        <ele>252.2</ele>
        <time>2023-10-18T14:40:20Z</time>
      </trkpt>
      <trkpt lat="48.72749" lon="7.04579">
        <ele>252.2</ele>
        <time>2023-10-18T14:40:26Z</time>
      </trkpt>
      <trkpt lat="48.72759" lon="7.04555">
        <ele>252.2</ele>
        <time>2023-10-18T14:40:31Z</time>
      </trkpt>
      <trkpt lat="48.7277" lon="7.04532">
        <ele>252.2</ele>
        <time>2023-10-18T14:40:36Z</time>
      </trkpt>
      <trkpt lat="48.72781" lon="7.04506">
        <ele>252.4</ele>
        <time>2023-10-18T14:40:42Z</time>
      </trkpt>
      <trkpt lat="48.72793" lon="7.04482">
        <ele>252.5</ele>
        <time>2023-10-18T14:40:49Z</time>
      </trkpt>
      <trkpt lat="48.72797" lon="7.04481">
        <ele>252.5</ele>
        <time>2023-10-18T14:40:59Z</time>
      </trkpt>
      <trkpt lat="48.72785" lon="7.04507">
        <ele>252.4</ele>
        <time>2023-10-18T14:41:04Z</time>
      </trkpt>
      <trkpt lat="48.72774" lon="7.04532">
        <ele>252.3</ele>
        <time>2023-10-18T14:41:08Z</time>
      </trkpt>
      <trkpt lat="48.72762" lon="7.04556">
        <ele>252.2</ele>
        <time>2023-10-18T14:41:12Z</time>
      </trkpt>
      <trkpt lat="48.72751" lon="7.04579">
        <ele>252.2</ele>
        <time>2023-10-18T14:41:16Z</time>
      </trkpt>
      <trkpt lat="48.72748" lon="7.04585">
        <ele>252.2</ele>
        <time>2023-10-18T14:41:17Z</time>
      </trkpt>
      <trkpt lat="48.72745" lon="7.04591">
        <ele>252.2</ele>
        <time>2023-10-18T14:41:18Z</time>
      </trkpt>
      <trkpt lat="48.72739" lon="7.04616">
        <ele>252.2</ele>
        <time>2023-10-18T14:41:22Z</time>
      </trkpt>
      <trkpt lat="48.7274" lon="7.04629">
        <ele>252.2</ele>
        <time>2023-10-18T14:41:24Z</time>
      </trkpt>
      <trkpt lat="48.72744" lon="7.04641">
        <ele>252.2</ele>
        <time>2023-10-18T14:41:26Z</time>
      </trkpt>
      <trkpt lat="48.72753" lon="7.04656">
        <ele>252.2</ele>
        <time>2023-10-18T14:41:29Z</time>
      </trkpt>
      <trkpt lat="48.72761" lon="7.04664">
        <ele>252.3</ele>
        <time>2023-10-18T14:41:31Z</time>
      </trkpt>
      <trkpt lat="48.72774" lon="7.04671">
        <ele>252.3</ele>
        <time>2023-10-18T14:41:34Z</time>
      </trkpt>
      <trkpt lat="48.72784" lon="7.04672">
        <ele>252.4</ele>
        <time>2023-10-18T14:41:36Z</time>
      </trkpt>
      <trkpt lat="48.72793" lon="7.0467">
        <ele>252.4</ele>
        <time>2023-10-18T14:41:38Z</time>
      </trkpt>
      <trkpt lat="48.72801" lon="7.04663">
        <ele>252.4</ele>
        <time>2023-10-18T14:41:40Z</time>
      </trkpt>
      <trkpt lat="48.72808" lon="7.04653">
        <ele>252.4</ele>
        <time>2023-10-18T14:41:42Z</time>
      </trkpt>
      <trkpt lat="48.72821" lon="7.04627">
        <ele>252.6</ele>
        <time>2023-10-18T14:41:47Z</time>
      </trkpt>
      <trkpt lat="48.72832" lon="7.04604">
        <ele>252.7</ele>
        <time>2023-10-18T14:41:51Z</time>
      </trkpt>
      <trkpt lat="48.72842" lon="7.04581">
        <ele>252.8</ele>
        <time>2023-10-18T14:41:55Z</time>
      </trkpt>
      <trkpt lat="48.72853" lon="7.04559">
        <ele>252.9</ele>
        <time>2023-10-18T14:41:59Z</time>
      </trkpt>
      <trkpt lat="48.72855" lon="7.04553">
        <ele>252.9</ele>
        <time>2023-10-18T14:42:00Z</time>
      </trkpt>
      <trkpt lat="48.72858" lon="7.04541">
        <ele>252.9</ele>
        <time>2023-10-18T14:42:02Z</time>
      </trkpt>
      <trkpt lat="48.72858" lon="7.0453">
        <ele>252.9</ele>
        <time>2023-10-18T14:42:04Z</time>
      </trkpt>
      <trkpt lat="48.72855" lon="7.04519">
        <ele>252.8</ele>
        <time>2023-10-18T14:42:06Z</time>
      </trkpt>
      <trkpt lat="48.7285" lon="7.04515">
        <ele>252.8</ele>
        <time>2023-10-18T14:42:08Z</time>
      </trkpt>
      <trkpt lat="48.72845" lon="7.04543">
        <ele>252.9</ele>
        <time>2023-10-18T14:42:14Z</time>
      </trkpt>
      <trkpt lat="48.72838" lon="7.04573">
        <ele>252.8</ele>
        <time>2023-10-18T14:42:20Z</time>
      </trkpt>
      <trkpt lat="48.72829" lon="7.04601">
        <ele>252.7</ele>
        <time>2023-10-18T14:42:27Z</time>
      </trkpt>
      <trkpt lat="48.72818" lon="7.04627">
        <ele>252.6</ele>
        <time>2023-10-18T14:42:34Z</time>
      </trkpt>
      <trkpt lat="48.72808" lon="7.04654">
        <ele>252.5</ele>
        <time>2023-10-18T14:42:41Z</time>
      </trkpt>
      <trkpt lat="48.72794" lon="7.04671">
        <ele>252.4</ele>
        <time>2023-10-18T14:42:47Z</time>
      </trkpt>
      <trkpt lat="48.72787" lon="7.04675">
        <ele>252.4</ele>
        <time>2023-10-18T14:42:50Z</time>
      </trkpt>
      <trkpt lat="48.72789" lon="7.04674">
        <ele>252.4</ele>
        <time>2023-10-18T14:42:53Z</time>
      </trkpt>
      <trkpt lat="48.72793" lon="7.04671">
        <ele>252.4</ele>
        <time>2023-10-18T14:42:58Z</time>
      </trkpt>
      <trkpt lat="48.72807" lon="7.04652">
        <ele>252.4</ele>
        <time>2023-10-18T14:43:03Z</time>
      </trkpt>
      <trkpt lat="48.72818" lon="7.04627">
        <ele>252.6</ele>
        <time>2023-10-18T14:43:07Z</time>
      </trkpt>
      <trkpt lat="48.7283" lon="7.04604">
        <ele>252.7</ele>
        <time>2023-10-18T14:43:11Z</time>
      </trkpt>
      <trkpt lat="48.72841" lon="7.04581">
        <ele>252.8</ele>
        <time>2023-10-18T14:43:15Z</time>
      </trkpt>
      <trkpt lat="48.72851" lon="7.04557">
        <ele>252.9</ele>
        <time>2023-10-18T14:43:19Z</time>
      </trkpt>
      <trkpt lat="48.72853" lon="7.04551">
        <ele>252.9</ele>
        <time>2023-10-18T14:43:20Z</time>
      </trkpt>
      <trkpt lat="48.72855" lon="7.04537">
        <ele>252.9</ele>
        <time>2023-10-18T14:43:22Z</time>
      </trkpt>
      <trkpt lat="48.72855" lon="7.04523">
        <ele>252.8</ele>
        <time>2023-10-18T14:43:24Z</time>
      </trkpt>
      <trkpt lat="48.72851" lon="7.04509">
        <ele>252.8</ele>
        <time>2023-10-18T14:43:26Z</time>
      </trkpt>
      <trkpt lat="48.72846" lon="7.04497">
        <ele>252.7</ele>
        <time>2023-10-18T14:43:28Z</time>
      </trkpt>
      <trkpt lat="48.72839" lon="7.04487">
        <ele>252.6</ele>
        <time>2023-10-18T14:43:30Z</time>
      </trkpt>
      <trkpt lat="48.72823" lon="7.04475">
        <ele>252.6</ele>
        <time>2023-10-18T14:43:34Z</time>
      </trkpt>
      <trkpt lat="48.72818" lon="7.04474">
        <ele>252.7</ele>
        <time>2023-10-18T14:43:35Z</time>
      </trkpt>
      <trkpt lat="48.72809" lon="7.04475">
        <ele>252.7</ele>
        <time>2023-10-18T14:43:37Z</time>
      </trkpt>
      <trkpt lat="48.72801" lon="7.0448">
        <ele>252.6</ele>
        <time>2023-10-18T14:43:39Z</time>
      </trkpt>
      <trkpt lat="48.72793" lon="7.04489">
        <ele>252.6</ele>
        <time>2023-10-18T14:43:41Z</time>
      </trkpt>
      <trkpt lat="48.7278" lon="7.04513">
        <ele>252.4</ele>
        <time>2023-10-18T14:43:45Z</time>
      </trkpt>
      <trkpt lat="48.72767" lon="7.04537">
        <ele>252.3</ele>
        <time>2023-10-18T14:43:49Z</time>
      </trkpt>
      <trkpt lat="48.72756" lon="7.04561">
        <ele>252.2</ele>
        <time>2023-10-18T14:43:53Z</time>
      </trkpt>
      <trkpt lat="48.72745" lon="7.04586">
        <ele>252.2</ele>
        <time>2023-10-18T14:43:57Z</time>
      </trkpt>
      <trkpt lat="48.72738" lon="7.04612">
        <ele>252.2</ele>
        <time>2023-10-18T14:44:01Z</time>
      </trkpt>
      <trkpt lat="48.72738" lon="7.04625">
        <ele>252.2</ele>
        <time>2023-10-18T14:44:03Z</time>
      </trkpt>
      <trkpt lat="48.72741" lon="7.04637">
        <ele>252.2</ele>
        <time>2023-10-18T14:44:05Z</time>
      </trkpt>
      <trkpt lat="48.72747" lon="7.04648">
        <ele>252.2</ele>
        <time>2023-10-18T14:44:07Z</time>
      </trkpt>
      <trkpt lat="48.72754" lon="7.04657">
        <ele>252.2</ele>
        <time>2023-10-18T14:44:09Z</time>
      </trkpt>
      <trkpt lat="48.72768" lon="7.04667">
        <ele>252.3</ele>
        <time>2023-10-18T14:44:12Z</time>
      </trkpt>
      <trkpt lat="48.72778" lon="7.04671">
        <ele>252.4</ele>
        <time>2023-10-18T14:44:14Z</time>
      </trkpt>
      <trkpt lat="48.72788" lon="7.0467">
        <ele>252.4</ele>
        <time>2023-10-18T14:44:16Z</time>
      </trkpt>
      <trkpt lat="48.72797" lon="7.04666">
        <ele>252.4</ele>
        <time>2023-10-18T14:44:18Z</time>
      </trkpt>
      <trkpt lat="48.72804" lon="7.0466">
        <ele>252.4</ele>
        <time>2023-10-18T14:44:20Z</time>
      </trkpt>
      <trkpt lat="48.7281" lon="7.04653">
        <ele>252.5</ele>
        <time>2023-10-18T14:44:22Z</time>
      </trkpt>
      <trkpt lat="48.72815" lon="7.0464">
        <ele>252.5</ele>
        <time>2023-10-18T14:44:28Z</time>
      </trkpt>
      <trkpt lat="48.72803" lon="7.04662">
        <ele>252.4</ele>
        <time>2023-10-18T14:44:38Z</time>
      </trkpt>
      <trkpt lat="48.72788" lon="7.04671">
        <ele>252.4</ele>
        <time>2023-10-18T14:44:44Z</time>
      </trkpt>
      <trkpt lat="48.72766" lon="7.04665">
        <ele>252.3</ele>
        <time>2023-10-18T14:44:50Z</time>
      </trkpt>
      <trkpt lat="48.72751" lon="7.04649">
        <ele>252.3</ele>
        <time>2023-10-18T14:44:56Z</time>
      </trkpt>
      <trkpt lat="48.72746" lon="7.04618">
        <ele>252.2</ele>
        <time>2023-10-18T14:45:01Z</time>
      </trkpt>
      <trkpt lat="48.72746" lon="7.04587">
        <ele>252.2</ele>
        <time>2023-10-18T14:45:06Z</time>
      </trkpt>
      <trkpt lat="48.72745" lon="7.04578">
        <ele>252.2</ele>
        <time>2023-10-18T14:45:12Z</time>
      </trkpt>
      <trkpt lat="48.72745" lon="7.0458">
        <ele>252.2</ele>
        <time>2023-10-18T14:45:16Z</time>
      </trkpt>
      <trkpt lat="48.72741" lon="7.04608">
        <ele>252.2</ele>
        <time>2023-10-18T14:45:20Z</time>
      </trkpt>
      <trkpt lat="48.72741" lon="7.04622">
        <ele>252.2</ele>
        <time>2023-10-18T14:45:22Z</time>
      </trkpt>
      <trkpt lat="48.72745" lon="7.04636">
        <ele>252.2</ele>
        <time>2023-10-18T14:45:24Z</time>
      </trkpt>
      <trkpt lat="48.72751" lon="7.04647">
        <ele>252.2</ele>
        <time>2023-10-18T14:45:26Z</time>
      </trkpt>
      <trkpt lat="48.72759" lon="7.04656">
        <ele>252.3</ele>
        <time>2023-10-18T14:45:28Z</time>
      </trkpt>
      <trkpt lat="48.72767" lon="7.04663">
        <ele>252.3</ele>
        <time>2023-10-18T14:45:30Z</time>
      </trkpt>
      <trkpt lat="48.72776" lon="7.04668">
        <ele>252.3</ele>
        <time>2023-10-18T14:45:32Z</time>
      </trkpt>
      <trkpt lat="48.72784" lon="7.04669">
        <ele>252.4</ele>
        <time>2023-10-18T14:45:34Z</time>
      </trkpt>
      <trkpt lat="48.72794" lon="7.04667">
        <ele>252.4</ele>
        <time>2023-10-18T14:45:36Z</time>
      </trkpt>
      <trkpt lat="48.72802" lon="7.04661">
        <ele>252.4</ele>
        <time>2023-10-18T14:45:38Z</time>
      </trkpt>
      <trkpt lat="48.72809" lon="7.04651">
        <ele>252.4</ele>
        <time>2023-10-18T14:45:40Z</time>
      </trkpt>
      <trkpt lat="48.7282" lon="7.04629">
        <ele>252.6</ele>
        <time>2023-10-18T14:45:44Z</time>
      </trkpt>
      <trkpt lat="48.72831" lon="7.04606">
        <ele>252.7</ele>
        <time>2023-10-18T14:45:48Z</time>
      </trkpt>
      <trkpt lat="48.72841" lon="7.04582">
        <ele>252.7</ele>
        <time>2023-10-18T14:45:52Z</time>
      </trkpt>
      <trkpt lat="48.72851" lon="7.04559">
        <ele>252.9</ele>
        <time>2023-10-18T14:45:56Z</time>
      </trkpt>
      <trkpt lat="48.72855" lon="7.04547">
        <ele>252.9</ele>
        <time>2023-10-18T14:45:58Z</time>
      </trkpt>
      <trkpt lat="48.72856" lon="7.04534">
        <ele>252.9</ele>
        <time>2023-10-18T14:46:00Z</time>
      </trkpt>
      <trkpt lat="48.72853" lon="7.04519">
        <ele>252.8</ele>
        <time>2023-10-18T14:46:02Z</time>
      </trkpt>
      <trkpt lat="48.72846" lon="7.04499">
        <ele>252.7</ele>
        <time>2023-10-18T14:46:05Z</time>
      </trkpt>
      <trkpt lat="48.72836" lon="7.04484">
        <ele>252.6</ele>
        <time>2023-10-18T14:46:08Z</time>
      </trkpt>
      <trkpt lat="48.72828" lon="7.04477">
        <ele>252.6</ele>
        <time>2023-10-18T14:46:10Z</time>
      </trkpt>
      <trkpt lat="48.7282" lon="7.04472">
        <ele>252.7</ele>
        <time>2023-10-18T14:46:12Z</time>
      </trkpt>
      <trkpt lat="48.72811" lon="7.04472">
        <ele>252.7</ele>
        <time>2023-10-18T14:46:14Z</time>
      </trkpt>
      <trkpt lat="48.72803" lon="7.04476">
        <ele>252.6</ele>
        <time>2023-10-18T14:46:16Z</time>
      </trkpt>
      <trkpt lat="48.72796" lon="7.04485">
        <ele>252.6</ele>
        <time>2023-10-18T14:46:18Z</time>
      </trkpt>
      <trkpt lat="48.72784" lon="7.04509">
        <ele>252.4</ele>
        <time>2023-10-18T14:46:22Z</time>
      </trkpt>
      <trkpt lat="48.72773" lon="7.04534">
        <ele>252.3</ele>
        <time>2023-10-18T14:46:26Z</time>
      </trkpt>
      <trkpt lat="48.7276" lon="7.04559">
        <ele>252.2</ele>
        <time>2023-10-18T14:46:30Z</time>
      </trkpt>
      <trkpt lat="48.72748" lon="7.04583">
        <ele>252.2</ele>
        <time>2023-10-18T14:46:34Z</time>
      </trkpt>
      <trkpt lat="48.72741" lon="7.046">
        <ele>252.2</ele>
        <time>2023-10-18T14:46:37Z</time>
      </trkpt>
      <trkpt lat="48.7274" lon="7.04609">
        <ele>252.2</ele>
        <time>2023-10-18T14:46:39Z</time>
      </trkpt>
      <trkpt lat="48.72739" lon="7.0461">
        <ele>252.2</ele>
        <time>2023-10-18T14:46:43Z</time>
      </trkpt>
      <trkpt lat="48.72748" lon="7.04583">
        <ele>252.2</ele>
        <time>2023-10-18T14:46:51Z</time>
      </trkpt>
      <trkpt lat="48.72758" lon="7.0456">
        <ele>252.2</ele>
        <time>2023-10-18T14:47:00Z</time>
      </trkpt>
      <trkpt lat="48.72769" lon="7.04535">
        <ele>252.3</ele>
        <time>2023-10-18T14:47:07Z</time>
      </trkpt>
      <trkpt lat="48.7278" lon="7.04509">
        <ele>252.5</ele>
        <time>2023-10-18T14:47:14Z</time>
      </trkpt>
      <trkpt lat="48.72792" lon="7.04483">
        <ele>252.6</ele>
        <time>2023-10-18T14:47:21Z</time>
      </trkpt>
      <trkpt lat="48.72806" lon="7.04472">
        <ele>252.7</ele>
        <time>2023-10-18T14:47:31Z</time>
      </trkpt>
      <trkpt lat="48.72803" lon="7.04475">
        <ele>252.7</ele>
        <time>2023-10-18T14:47:34Z</time>
      </trkpt>
      <trkpt lat="48.72792" lon="7.04492">
        <ele>252.6</ele>
        <time>2023-10-18T14:47:38Z</time>
      </trkpt>
      <trkpt lat="48.72781" lon="7.04516">
        <ele>252.4</ele>
        <time>2023-10-18T14:47:42Z</time>
      </trkpt>
      <trkpt lat="48.72769" lon="7.04541">
        <ele>252.3</ele>
        <time>2023-10-18T14:47:46Z</time>
      </trkpt>
      <trkpt lat="48.72757" lon="7.04565">
        <ele>252.2</ele>
        <time>2023-10-18T14:47:50Z</time>
      </trkpt>
      <trkpt lat="48.72745" lon="7.0459">
        <ele>252.2</ele>
        <time>2023-10-18T14:47:54Z</time>
      </trkpt>
      <trkpt lat="48.72743" lon="7.04597">
        <ele>252.2</ele>
        <time>2023-10-18T14:47:55Z</time>
      </trkpt>
      <trkpt lat="48.72741" lon="7.04611">
        <ele>252.2</ele>
        <time>2023-10-18T14:47:57Z</time>
      </trkpt>
      <trkpt lat="48.72741" lon="7.04626">
        <ele>252.2</ele>
        <time>2023-10-18T14:47:59Z</time>
      </trkpt>
      <trkpt lat="48.72744" lon="7.04639">
        <ele>252.2</ele>
        <time>2023-10-18T14:48:01Z</time>
      </trkpt>
      <trkpt lat="48.72751" lon="7.04651">
        <ele>252.2</ele>
        <time>2023-10-18T14:48:03Z</time>
      </trkpt>
      <trkpt lat="48.72759" lon="7.0466">
        <ele>252.2</ele>
        <time>2023-10-18T14:48:05Z</time>
      </trkpt>
      <trkpt lat="48.72768" lon="7.04667">
        <ele>252.3</ele>
        <time>2023-10-18T14:48:07Z</time>
      </trkpt>
      <trkpt lat="48.72778" lon="7.0467">
        <ele>252.3</ele>
        <time>2023-10-18T14:48:09Z</time>
      </trkpt>
      <trkpt lat="48.72788" lon="7.04671">
        <ele>252.4</ele>
        <time>2023-10-18T14:48:11Z</time>
      </trkpt>
      <trkpt lat="48.72797" lon="7.04667">
        <ele>252.4</ele>
        <time>2023-10-18T14:48:13Z</time>
      </trkpt>
      <trkpt lat="48.72805" lon="7.04659">
        <ele>252.4</ele>
        <time>2023-10-18T14:48:15Z</time>
      </trkpt>
      <trkpt lat="48.72818" lon="7.04637">
        <ele>252.5</ele>
        <time>2023-10-18T14:48:19Z</time>
      </trkpt>
      <trkpt lat="48.7283" lon="7.04613">
        <ele>252.6</ele>
        <time>2023-10-18T14:48:23Z</time>
      </trkpt>
      <trkpt lat="48.72842" lon="7.04587">
        <ele>252.7</ele>
        <time>2023-10-18T14:48:27Z</time>
      </trkpt>
      <trkpt lat="48.72853" lon="7.0456">
        <ele>252.9</ele>
        <time>2023-10-18T14:48:31Z</time>
      </trkpt>
      <trkpt lat="48.72855" lon="7.04553">
        <ele>252.9</ele>
        <time>2023-10-18T14:48:32Z</time>
      </trkpt>
      <trkpt lat="48.72857" lon="7.04538">
        <ele>252.9</ele>
        <time>2023-10-18T14:48:34Z</time>
      </trkpt>
      <trkpt lat="48.72855" lon="7.04521">
        <ele>252.8</ele>
        <time>2023-10-18T14:48:36Z</time>
      </trkpt>
      <trkpt lat="48.7285" lon="7.04506">
        <ele>252.8</ele>
        <time>2023-10-18T14:48:38Z</time>
      </trkpt>
      <trkpt lat="48.72835" lon="7.04484">
        <ele>252.6</ele>
        <time>2023-10-18T14:48:42Z</time>
      </trkpt>
      <trkpt lat="48.72826" lon="7.04478">
        <ele>252.6</ele>
        <time>2023-10-18T14:48:44Z</time>
      </trkpt>
      <trkpt lat="48.72817" lon="7.04475">
        <ele>252.7</ele>
        <time>2023-10-18T14:48:46Z</time>
      </trkpt>
      <trkpt lat="48.72807" lon="7.04476">
        <ele>252.6</ele>
        <time>2023-10-18T14:48:48Z</time>
      </trkpt>
      <trkpt lat="48.72798" lon="7.04484">
        <ele>252.6</ele>
        <time>2023-10-18T14:48:50Z</time>
      </trkpt>
      <trkpt lat="48.72783" lon="7.04508">
        <ele>252.5</ele>
        <time>2023-10-18T14:48:54Z</time>
      </trkpt>
      <trkpt lat="48.72771" lon="7.04534">
        <ele>252.3</ele>
        <time>2023-10-18T14:48:58Z</time>
      </trkpt>
      <trkpt lat="48.72759" lon="7.0456">
        <ele>252.2</ele>
        <time>2023-10-18T14:49:02Z</time>
      </trkpt>
      <trkpt lat="48.72748" lon="7.04584">
        <ele>252.2</ele>
        <time>2023-10-18T14:49:06Z</time>
      </trkpt>
      <trkpt lat="48.72738" lon="7.04608">
        <ele>252.2</ele>
        <time>2023-10-18T14:49:12Z</time>
      </trkpt>
      <trkpt lat="48.72738" lon="7.04613">
        <ele>252.2</ele>
        <time>2023-10-18T14:49:14Z</time>
      </trkpt>
    </trkseg>
  </trk>
</gpx>